Aviation Digital Data Service (ADDS)

Output produced by METARs form (1457 UTC 30 August 2016)
found at http://aviationweather.gov/adds/metars/
 
KPNE 301127Z 3012/3112 04006KT P6SM FEW250 
     FM301700 08005KT P6SM SCT060 
     TEMPO 3019/3021 BKN060 
     FM302200 11003KT P6SM FEW200